Latest Weather Observations for Leinster

IDW60801

Issued at 1:31 pm WST Monday 2 May 2016 (issued every 30 minutes, with the page automatically refreshed every 10 minutes)

About weather observations | Map of weather stations | Latest weather observations for WA | Other Formats
Station Details ID: 012314 Name: LEINSTER AERO Lat: -27.84 Lon: 120.70 Height: 497.0 m
Data from the previous 72 hours. | See also: Recent months at Leinster
Date/Time
WST
Temp
°C
App
Temp
°C
Dew
Point
Rel
Hum
%
Delta-T
°C
Wind Press
QNH
hPa
Press
MSL
hPa
Rain
since 9 am
mm
Dir
 
Spd
km/h
Gust
km/h
Spd
kts
Gust
kts
02/01:30pm 26.1 23.8 5.7 27 10.7 ESE 7 9 4 5 1017.2 1015.9 0.0
02/01:00pm 25.5 22.8 5.7 28 10.4 S 9 19 5 10 1017.8 1016.6 0.0
02/12:30pm 25.0 22.7 5.7 29 10.1 S 7 11 4 6 1018.3 1017.0 0.0
02/12:00pm 24.7 22.4 5.0 28 10.1 SE 6 13 3 7 1018.8 1017.5 0.0
02/11:30am 24.5 22.7 5.3 29 9.9 NW 4 13 2 7 1019.2 1017.9 0.0
02/11:00am 24.0 20.9 5.4 30 9.6 NE 11 19 6 10 1019.5 1018.3 0.0
02/10:30am 23.1 20.7 5.1 31 9.2 NE 7 15 4 8 1019.8 1018.6 0.0
02/10:00am 22.2 19.3 4.7 32 8.8 ENE 9 15 5 8 1020.0 1018.8 0.0
02/09:30am 20.8 17.2 4.8 35 8.0 NE 13 19 7 10 1020.1 1018.9 0.0
02/09:00am 19.4 15.7 4.7 38 7.3 E 13 19 7 10 1020.1 1018.9 0.0
02/08:30am 17.1 13.8 4.4 43 6.2 ESE 11 15 6 8 1020.1 1018.9 0.0
02/08:00am 14.6 11.1 3.4 47 5.2 SE 11 17 6 9 1020.2 1019.0 0.0
02/07:30am 13.2 9.7 3.6 52 4.4 SE 11 15 6 8 1019.8 1018.6 0.0
02/07:00am 11.1 8.0 3.4 59 3.5 SE 9 11 5 6 1019.5 1018.3 0.0
02/06:30am 10.6 7.5 3.4 61 3.2 SSE 9 11 5 6 1019.3 1018.0 0.0
02/06:00am 10.8 8.0 3.1 59 3.4 SSE 7 9 4 5 1019.0 1017.7 0.0
02/05:30am 11.2 8.4 3.3 58 3.6 SE 7 11 4 6 1018.7 1017.4 0.0
02/05:00am 11.2 8.6 3.3 58 3.6 SE 6 7 3 4 1018.5 1017.2 0.0
02/04:30am 11.5 8.8 3.5 58 3.6 SSE 7 9 4 5 1018.1 1016.9 0.0
02/04:00am 11.7 8.9 3.2 56 3.8 E 7 7 4 4 1017.8 1016.6 0.0
02/03:30am 12.1 9.3 3.1 54 4.1 SE 7 9 4 5 1017.8 1016.6 0.0
02/03:00am 12.8 9.6 3.2 52 4.4 ESE 9 11 5 6 1017.8 1016.6 0.0
02/02:30am 13.5 10.7 3.0 49 4.8 E 7 11 4 6 1017.8 1016.6 0.0
02/02:00am 13.9 11.1 3.1 48 5.0 ESE 7 9 4 5 1018.1 1016.9 0.0
02/01:30am 13.9 10.8 3.4 49 4.9 E 9 13 5 7 1018.3 1017.0 0.0
02/01:00am 14.3 11.5 3.2 47 5.1 ESE 7 9 4 5 1018.3 1017.0 0.0
02/12:30am 14.8 11.6 3.3 46 5.4 ESE 9 13 5 7 1018.3 1017.0 0.0
02/12:00am 15.0 11.8 3.2 45 5.5 SE 9 11 5 6 1018.5 1017.2 0.0
 
Date/Time
WST
Temp
°C
App
Temp
°C
Dew
Point
Rel
Hum
%
Delta-T
°C
Wind Press
QNH
hPa
Press
MSL
hPa
Rain
since 9 am
mm
Dir
 
Spd
km/h
Gust
km/h
Spd
kts
Gust
kts
01/11:30pm 15.2 12.4 3.4 45 5.5 SE 7 9 4 5 1018.6 1017.3 0.0
01/11:00pm 16.0 12.9 3.4 43 5.9 SE 9 13 5 7 1018.5 1017.2 0.0
01/10:30pm 16.0 12.9 3.4 43 5.9 SE 9 11 5 6 1018.8 1017.5 0.0
01/10:00pm 16.0 13.3 3.8 44 5.8 SE 7 9 4 5 1019.1 1017.8 0.0
01/09:30pm 16.9 13.8 3.6 41 6.3 SSE 9 11 5 6 1019.1 1017.8 0.0
01/09:00pm 17.8 14.0 3.7 39 6.8 SSE 13 17 7 9 1019.1 1017.8 0.0
01/08:30pm 18.2 14.0 4.0 39 6.9 SSE 15 20 8 11 1019.2 1017.9 0.0
01/08:00pm 18.9 14.7 3.9 37 7.3 SSE 15 20 8 11 1019.2 1017.9 0.0
01/07:30pm 19.3 16.4 4.6 38 7.3 SSE 9 11 5 6 1019.0 1017.7 0.0
01/07:00pm 20.2 17.4 5.1 37 7.6 SSE 9 13 5 7 1018.7 1017.4 0.0
01/06:30pm 20.8 18.3 4.8 35 8.0 SSE 7 9 4 5 1018.5 1017.2 0.0
01/06:00pm 21.7 18.8 4.7 33 8.5 S 9 11 5 6 1018.0 1016.8 0.0
01/05:30pm 22.6 19.4 5.1 32 8.9 S 11 13 6 7 1017.7 1016.5 0.0
01/05:00pm 23.3 20.5 5.2 31 9.3 SSE 9 11 5 6 1017.5 1016.2 0.0
01/04:30pm 24.0 21.6 5.4 30 9.6 SE 7 13 4 7 1017.3 1016.0 0.0
01/04:00pm 24.1 21.8 5.0 29 9.8 SSW 6 9 3 5 1017.3 1016.0 0.0
01/03:30pm 24.4 21.6 5.2 29 9.9 SSW 9 15 5 8 1017.2 1015.9 0.0
01/03:00pm 24.4 21.0 5.7 30 9.7 ESE 13 17 7 9 1017.3 1016.0 0.0
01/02:30pm 23.7 20.9 5.1 30 9.6 SSE 9 15 5 8 1017.2 1015.9 0.0
01/02:00pm 23.7 20.9 5.1 30 9.5 SE 9 15 5 8 1017.4 1016.1 0.0
01/01:30pm 23.9 21.6 5.8 31 9.4 NNE 7 13 4 7 1017.5 1016.2 0.0
01/01:00pm 23.4 20.6 5.3 31 9.3 NNE 9 13 5 7 1018.0 1016.8 0.0
01/12:30pm 22.7 19.9 5.2 32 8.9 ENE 9 19 5 10 1018.6 1017.3 0.0
01/12:00pm 21.6 18.8 5.1 34 8.3 SSE 9 15 5 8 1019.0 1017.7 0.0
01/11:30am 21.2 18.4 5.1 35 8.1 ESE 9 13 5 7 1019.6 1018.4 0.0
01/11:00am 20.9 18.2 5.7 37 7.7 E 9 17 5 9 1019.9 1018.7 0.0
01/10:30am 20.0 16.5 5.3 38 7.4 NE 13 20 7 11 1020.1 1018.9 0.0
01/10:00am 19.5 16.0 5.6 40 7.0 E 13 19 7 10 1020.4 1019.1 0.0
01/09:30am 18.1 14.1 5.0 42 6.5 E 15 20 8 11 1020.6 1019.3 0.0
01/09:00am 17.0 12.6 4.7 44 6.0 ENE 17 22 9 12 1020.8 1019.5 0.0
01/08:30am 15.7 11.2 4.4 47 5.4 ENE 17 22 9 12 1020.8 1019.5 0.0
01/08:00am 13.6 10.2 3.9 52 4.5 E 11 15 6 8 1020.5 1019.2 0.0
01/07:30am 11.6 8.5 3.6 58 3.7 ESE 9 13 5 7 1020.1 1017.9 0.0
01/07:00am 9.5 6.8 3.7 67 2.6 ESE 7 9 4 5 1019.8 1017.6 0.0
01/06:30am 8.9 6.4 3.5 69 2.4 ESE 6 9 3 5 1019.7 1017.5 0.0
01/06:00am 9.2 6.5 3.6 68 2.5 ESE 7 9 4 5 1019.6 1017.4 0.0
01/05:30am 9.3 6.8 3.7 68 2.5 ESE 6 7 3 4 1019.6 1017.4 0.0
01/05:00am 9.6 6.5 3.8 67 2.6 SE 9 9 5 5 1019.3 1017.1 0.0
01/04:30am 9.8 7.1 3.8 66 2.7 SE 7 9 4 5 1019.1 1016.9 0.0
01/04:00am 9.8 7.2 4.0 67 2.6 SE 7 7 4 4 1018.9 1016.6 0.0
01/03:30am 10.2 7.6 4.1 66 2.8 SE 7 7 4 4 1018.8 1016.5 0.0
01/03:00am 9.9 7.6 4.9 71 2.3 SSE 6 7 3 4 1018.8 1016.5 0.0
01/02:30am 10.2 7.9 4.6 68 2.6 SSE 6 7 3 4 1018.8 1016.5 0.0
01/02:00am 10.4 8.0 4.5 67 2.7 SSE 6 7 3 4 1019.1 1016.9 0.0
01/01:30am 11.5 9.1 4.5 62 3.3 ESE 6 9 3 5 1019.2 1017.0 0.0
01/01:00am 11.9 9.4 4.6 61 3.4 ESE 7 9 4 5 1019.1 1016.9 0.0
01/12:30am 12.1 9.8 4.8 61 3.4 SE 6 7 3 4 1019.2 1017.0 0.0
01/12:00am 12.7 9.9 5.1 60 3.6 SE 9 9 5 5 1019.2 1017.0 0.0
 
Date/Time
WST
Temp
°C
App
Temp
°C
Dew
Point
Rel
Hum
%
Delta-T
°C
Wind Press
QNH
hPa
Press
MSL
hPa
Rain
since 9 am
mm
Dir
 
Spd
km/h
Gust
km/h
Spd
kts
Gust
kts
30/11:30pm 13.1 10.3 5.3 59 3.7 SE 9 9 5 5 1019.3 1017.1 0.0
30/11:00pm 13.6 10.8 5.3 57 4.0 SE 9 11 5 6 1019.5 1017.3 0.0
30/10:30pm 14.7 12.0 5.5 54 4.5 SSE 9 13 5 7 1019.6 1017.4 0.0
30/10:00pm 15.3 12.6 5.5 52 4.8 S 9 11 5 6 1019.5 1017.3 0.0
30/09:30pm 15.1 12.5 5.9 54 4.5 S 9 11 5 6 1019.6 1017.4 0.0
30/09:00pm 15.4 12.9 6.7 56 4.4 SSE 9 13 5 7 1019.5 1017.3 0.0
30/08:30pm 15.8 13.9 6.8 55 4.5 SE 6 7 3 4 1019.4 1017.2 0.0
30/08:00pm 15.1 13.2 6.7 57 4.2 SSE 6 7 3 4 1019.3 1017.1 0.0
30/07:30pm 14.8 14.0 6.4 57 4.2 CALM 0 0 0 0 1019.1 1016.9 0.0
30/07:00pm 16.6 15.8 6.7 52 5.0 CALM 0 0 0 0 1018.9 1016.6 0.0
30/06:30pm 17.8 15.9 6.7 48 5.7 SSE 6 6 3 3 1018.5 1016.2 0.0
30/06:00pm 19.0 16.9 6.5 44 6.4 S 7 9 4 5 1018.1 1015.9 0.0
30/05:30pm 19.7 17.2 6.4 42 6.8 S 9 15 5 8 1017.8 1015.6 0.0
30/05:00pm 20.2 16.9 6.2 40 7.2 SSE 13 17 7 9 1017.5 1015.3 0.0
30/04:30pm 20.4 17.2 6.7 41 7.1 S 13 22 7 12 1017.3 1015.1 0.0
30/04:00pm 20.7 17.2 7.3 42 7.0 SSW 15 20 8 11 1017.1 1014.8 0.0
30/03:30pm 21.2 18.0 6.7 39 7.6 SW 13 26 7 14 1016.9 1014.6 0.0
30/03:00pm 20.6 16.7 6.9 41 7.1 SSW 17 26 9 14 1016.9 1014.6 0.0
30/02:30pm 20.8 17.0 7.4 42 7.1 S 17 26 9 14 1016.8 1014.5 0.0
30/02:00pm 20.9 18.1 6.8 40 7.3 SSW 11 15 6 8 1016.7 1014.4 0.0
30/01:30pm 20.9 17.9 6.1 38 7.6 SW 11 20 6 11 1017.0 1014.7 0.0
30/01:00pm 20.7 17.4 6.6 40 7.3 SSW 13 19 7 10 1017.4 1015.2 0.0
30/12:30pm 19.7 16.1 6.8 43 6.7 SSW 15 24 8 13 1017.8 1015.6 0.0
30/12:00pm 19.5 15.6 6.9 44 6.5 SSW 17 26 9 14 1018.4 1016.1 0.0
30/11:30am 19.3 16.1 6.8 44 6.4 S 13 19 7 10 1018.7 1016.4 0.0
30/11:00am 18.9 15.2 6.4 44 6.4 SW 15 24 8 13 1019.0 1016.8 0.0
30/10:30am 18.3 14.8 7.1 48 5.8 SW 15 20 8 11 1019.3 1017.1 0.0
30/10:00am 17.7 14.2 8.6 55 4.8 SW 17 28 9 15 1019.5 1017.3 0.0
30/09:30am 16.9 12.8 8.8 59 4.3 SSW 20 26 11 14 1019.6 1017.4 0.0
30/09:00am 16.7 13.0 9.6 63 3.8 SSW 19 24 10 13 1019.6 1017.4 0.0
30/08:30am 15.6 11.7 9.5 67 3.2 SSW 20 28 11 15 1019.5 1017.3 0.0
30/08:00am 15.0 11.7 9.6 70 2.9 SSW 17 24 9 13 1019.2 1017.0 0.0
30/07:30am 13.7 11.5 9.4 75 2.3 SW 11 17 6 9 1018.7 1016.4 0.0
30/07:00am 12.0 10.4 8.8 81 1.6 WSW 7 11 4 6 1018.1 1015.9 0.0
30/06:30am 11.8 9.7 8.3 79 1.8 SW 9 13 5 7 1017.9 1015.7 0.0
30/06:00am 12.4 10.3 8.3 76 2.1 SSW 9 13 5 7 1017.7 1015.5 0.0
30/05:30am 12.9 9.7 8.6 75 2.2 SSW 15 20 8 11 1017.4 1015.2 0.0
30/05:00am 13.2 9.7 8.7 74 2.3 SW 17 24 9 13 1017.2 1015.0 0.0
30/04:30am 13.6 9.7 8.7 72 2.5 SW 19 26 10 14 1016.9 1014.6 0.0
30/04:00am 12.7 10.2 8.0 73 2.4 SW 11 13 6 7 1016.6 1014.3 0.0
30/03:30am 11.3 8.9 7.2 76 2.0 WSW 9 13 5 7 1016.4 1014.1 0.0
30/03:00am 11.6 9.3 7.3 75 2.1 W 9 13 5 7 1016.2 1013.9 0.0
30/02:30am 12.0 9.7 7.3 73 2.3 NW 9 11 5 6 1016.0 1013.8 0.0
30/02:00am 12.7 10.4 7.6 71 2.6 WNW 9 11 5 6 1016.3 1014.0 0.0
30/01:30am 12.7 10.1 7.6 71 2.6 WNW 11 11 6 6 1016.4 1014.1 0.0
30/01:00am 13.2 10.9 7.6 69 2.8 W 9 11 5 6 1016.5 1014.2 0.0
30/12:30am 13.8 11.5 7.3 65 3.3 W 9 11 5 6 1016.6 1014.3 0.0
30/12:00am 14.4 12.1 7.5 63 3.5 WSW 9 13 5 7 1016.6 1014.3 0.0
 
Date/Time
WST
Temp
°C
App
Temp
°C
Dew
Point
Rel
Hum
%
Delta-T
°C
Wind Press
QNH
hPa
Press
MSL
hPa
Rain
since 9 am
mm
Dir
 
Spd
km/h
Gust
km/h
Spd
kts
Gust
kts
29/11:30pm 14.7 12.4 7.3 61 3.7 WSW 9 11 5 6 1016.6 1014.3 0.0
29/11:00pm 14.7 12.4 7.3 61 3.7 W 9 11 5 6 1016.8 1014.5 0.0
29/10:30pm 15.1 13.1 7.2 59 4.0 WSW 7 9 4 5 1016.9 1014.6 0.0
29/10:00pm 15.5 13.1 6.8 56 4.4 WSW 9 13 5 7 1017.0 1014.7 0.0
29/09:30pm 15.5 13.0 6.5 55 4.5 W 9 11 5 6 1016.8 1014.5 0.0
29/09:00pm 15.8 13.2 6.3 53 4.7 WSW 9 9 5 5 1016.8 1014.5 0.0
29/08:30pm 16.4 13.9 6.5 52 5.0 WSW 9 11 5 6 1016.6 1014.3 0.0
29/08:00pm 16.5 13.9 6.3 51 5.1 W 9 9 5 5 1016.4 1014.1 0.0
29/07:30pm 16.7 14.5 6.2 50 5.3 WSW 7 9 4 5 1016.0 1013.8 0.0
29/07:00pm 17.5 15.5 6.1 47 5.7 WSW 6 7 3 4 1015.6 1013.4 0.0
29/06:30pm 18.4 16.3 5.9 44 6.3 SW 6 6 3 3 1015.3 1013.0 0.0
29/06:00pm 20.1 17.8 5.7 39 7.3 SW 7 9 4 5 1015.1 1012.8 0.0
29/05:30pm 21.2 18.1 5.6 36 8.0 WSW 11 13 6 7 1014.8 1012.5 0.0
29/05:00pm 22.2 18.2 4.7 32 8.8 WSW 15 20 8 11 1014.8 1012.5 0.0
29/04:30pm 22.8 19.3 5.3 32 9.0 SW 13 22 7 12 1014.8 1012.5 0.0
29/04:00pm 23.0 18.4 5.4 32 9.0 WSW 19 24 10 13 1015.0 1012.7 0.0
29/03:30pm 23.4 19.8 4.9 30 9.4 W 13 20 7 11 1015.0 1012.7 0.0
29/03:00pm 23.2 19.6 5.2 31 9.2 W 13 22 7 12 1014.9 1012.6 0.0
29/02:30pm 22.9 19.4 5.3 32 9.0 WSW 13 24 7 13 1015.0 1012.7 0.0
29/02:00pm 22.7 19.2 5.6 33 8.8 WNW 13 20 7 11 1015.1 1012.8 0.0

Other Formats:

Comma delimited format used in spreadsheet applications
http://www.bom.gov.au/fwo/IDW60801/IDW60801.95448.axf

JavaScript Object Notation format (JSON) in row-major order
http://www.bom.gov.au/fwo/IDW60801/IDW60801.95448.json